createdAt,value
2019-05-11T00:00:22.022Z,40.93
2019-05-11T00:01:22.260Z,39.16
2019-05-11T00:02:22.347Z,39.48
2019-05-11T00:03:22.570Z,40.12
2019-05-11T00:04:22.773Z,42.70
2019-05-11T00:05:22.943Z,48.34
2019-05-11T00:06:23.142Z,53.33
2019-05-11T00:07:23.345Z,46.41
2019-05-11T00:08:23.549Z,42.86
2019-05-11T00:09:23.743Z,40.93
2019-05-11T00:10:23.955Z,64.29
2019-05-11T00:11:24.147Z,57.85
2019-05-11T00:12:24.339Z,43.99
2019-05-11T00:13:24.532Z,40.12
2019-05-11T00:14:24.754Z,42.54
2019-05-11T00:15:24.946Z,42.54
2019-05-11T00:16:25.132Z,41.09
2019-05-11T00:17:25.341Z,41.25
2019-05-11T00:18:25.510Z,44.96
2019-05-11T00:19:25.736Z,43.34
2019-05-11T00:20:25.899Z,43.51
2019-05-11T00:21:26.097Z,44.31
2019-05-11T00:22:26.279Z,43.67
2019-05-11T00:23:26.471Z,39.48
2019-05-11T00:24:29.404Z,42.86
2019-05-11T00:25:27.831Z,46.08
2019-05-11T00:26:27.021Z,39.64
2019-05-11T00:27:27.221Z,41.25
2019-05-11T00:28:27.396Z,39.96
2019-05-11T00:29:27.566Z,39.48
2019-05-11T00:30:27.761Z,40.44
2019-05-11T00:31:27.955Z,39.48
2019-05-11T00:32:28.121Z,39.80
2019-05-11T00:33:28.311Z,43.67
2019-05-11T00:34:28.495Z,43.51
2019-05-11T00:35:28.643Z,71.06
2019-05-11T00:36:28.827Z,40.44
2019-05-11T00:37:29.031Z,40.61
2019-05-11T00:38:29.190Z,48.82
2019-05-11T00:39:29.319Z,48.02
2019-05-11T00:40:29.482Z,47.21
2019-05-11T00:41:29.631Z,42.54
2019-05-11T00:42:29.843Z,44.47
2019-05-11T00:43:30.024Z,40.93
2019-05-11T00:44:30.187Z,48.18
2019-05-11T00:45:30.355Z,41.73
2019-05-11T00:46:30.535Z,40.12
2019-05-11T00:47:30.725Z,40.93
2019-05-11T00:48:30.878Z,42.22
2019-05-11T00:49:31.033Z,42.22
2019-05-11T00:50:39.276Z,43.83
2019-05-11T00:51:33.296Z,39.32
2019-05-11T00:52:31.575Z,42.06
2019-05-11T00:53:31.761Z,45.60
2019-05-11T00:54:31.932Z,45.12
2019-05-11T00:55:32.119Z,47.37
2019-05-11T00:56:32.328Z,40.28
2019-05-11T00:57:32.522Z,50.43
2019-05-11T00:58:32.669Z,48.50
2019-05-11T00:59:32.844Z,41.41
2019-05-11T01:00:33.000Z,43.99
2019-05-11T01:01:33.205Z,46.25
2019-05-11T01:02:33.361Z,45.92
2019-05-11T01:03:33.540Z,44.47
2019-05-11T01:04:33.743Z,47.37
2019-05-11T01:05:33.885Z,47.86
2019-05-11T01:06:34.070Z,40.61
2019-05-11T01:07:34.275Z,51.40
2019-05-11T01:08:34.472Z,42.22
2019-05-11T01:09:34.624Z,46.41
2019-05-11T01:10:42.186Z,43.34
2019-05-11T01:11:36.934Z,43.83
2019-05-11T01:12:35.088Z,42.06
2019-05-11T01:13:35.263Z,43.51
2019-05-11T01:14:35.499Z,42.86
2019-05-11T01:15:35.695Z,43.34
2019-05-11T01:16:35.881Z,40.93
2019-05-11T01:17:36.065Z,43.99
2019-05-11T01:18:36.254Z,48.98
2019-05-11T01:19:36.467Z,40.61
2019-05-11T01:20:36.654Z,47.21
2019-05-11T01:21:36.859Z,50.76
2019-05-11T01:22:37.047Z,45.12
2019-05-11T01:23:37.237Z,47.21
2019-05-11T01:24:37.424Z,43.34
2019-05-11T01:25:37.666Z,48.50
2019-05-11T01:26:37.747Z,39.32
2019-05-11T01:27:37.951Z,40.12
2019-05-11T01:28:38.172Z,75.89
2019-05-11T01:29:38.379Z,39.80
2019-05-11T01:30:38.928Z,44.63
2019-05-11T01:31:39.696Z,48.02
2019-05-11T01:32:38.892Z,41.09
2019-05-11T01:33:39.041Z,47.86
2019-05-11T01:34:39.123Z,44.47
2019-05-11T01:35:39.330Z,46.89
2019-05-11T01:36:39.520Z,50.76
2019-05-11T01:37:39.707Z,42.38
2019-05-11T01:38:39.925Z,40.61
2019-05-11T01:39:40.115Z,41.41
2019-05-11T01:40:40.276Z,39.48
2019-05-11T01:41:40.454Z,40.12
2019-05-11T01:42:40.647Z,39.80
2019-05-11T01:43:40.849Z,41.41
2019-05-11T01:44:41.028Z,46.89
2019-05-11T01:45:41.196Z,43.67
2019-05-11T01:46:41.375Z,39.32
2019-05-11T01:47:41.574Z,41.41
2019-05-11T01:48:41.777Z,47.70
2019-05-11T01:49:41.963Z,40.61
2019-05-11T01:50:42.136Z,42.54
2019-05-11T01:51:42.303Z,41.41
2019-05-11T01:52:42.482Z,44.96
2019-05-11T01:53:42.632Z,45.60
2019-05-11T01:54:42.840Z,39.64
2019-05-11T01:55:43.028Z,42.54
2019-05-11T01:56:43.204Z,43.02
2019-05-11T01:57:43.422Z,46.57
2019-05-11T01:58:43.575Z,46.73
2019-05-11T01:59:43.785Z,43.83
2019-05-11T02:00:44.165Z,40.77
2019-05-11T02:01:44.109Z,39.96
2019-05-11T02:02:44.297Z,44.79
2019-05-11T02:03:44.479Z,40.77
2019-05-11T02:04:44.703Z,48.02
2019-05-11T02:05:44.887Z,58.65
2019-05-11T02:06:45.058Z,70.09
2019-05-11T02:07:45.262Z,58.81
2019-05-11T02:08:45.452Z,60.10
2019-05-11T02:09:45.664Z,59.94
2019-05-11T02:10:45.855Z,61.39
2019-05-11T02:11:46.024Z,59.14
2019-05-11T02:12:46.224Z,58.33
2019-05-11T02:13:46.402Z,57.36
2019-05-11T02:14:46.564Z,66.39
2019-05-11T02:15:46.749Z,63.00
2019-05-11T02:16:46.907Z,71.22
2019-05-11T02:17:47.092Z,58.01
2019-05-11T02:18:47.261Z,60.26
2019-05-11T02:19:47.423Z,58.65
2019-05-11T02:20:47.610Z,51.40
2019-05-11T02:21:47.810Z,58.65
2019-05-11T02:22:47.988Z,58.33
2019-05-11T02:23:48.167Z,70.42
2019-05-11T02:24:48.323Z,58.33
2019-05-11T02:25:48.474Z,47.86
2019-05-11T02:26:48.656Z,60.59
2019-05-11T02:27:48.857Z,59.30
2019-05-11T02:28:49.022Z,69.45
2019-05-11T02:29:49.176Z,58.81
2019-05-11T02:30:49.326Z,53.01
2019-05-11T02:31:49.528Z,54.79
2019-05-11T02:32:49.696Z,52.53
2019-05-11T02:33:49.857Z,52.85
2019-05-11T02:34:50.002Z,53.66
2019-05-11T02:35:50.159Z,61.87
2019-05-11T02:36:51.373Z,63.97
2019-05-11T02:37:50.499Z,67.35
2019-05-11T02:38:50.655Z,56.72
2019-05-11T02:39:50.873Z,45.92
2019-05-11T02:40:51.026Z,74.12
2019-05-11T02:41:51.212Z,48.18
2019-05-11T02:42:51.351Z,44.79
2019-05-11T02:43:51.540Z,49.95
2019-05-11T02:44:51.703Z,51.72
2019-05-11T02:45:51.875Z,49.47
2019-05-11T02:46:52.052Z,49.15
2019-05-11T02:47:52.184Z,51.08
2019-05-11T02:48:52.337Z,49.79
2019-05-11T02:49:52.482Z,51.56
2019-05-11T02:50:52.651Z,53.50
2019-05-11T02:51:52.851Z,55.27
2019-05-11T02:52:53.015Z,54.30
2019-05-11T02:53:53.192Z,56.07
2019-05-11T02:54:53.337Z,55.75
2019-05-11T02:55:53.502Z,57.20
2019-05-11T02:56:54.710Z,56.07
2019-05-11T02:57:53.852Z,58.33
2019-05-11T02:58:54.014Z,60.42
2019-05-11T02:59:54.199Z,59.78
2019-05-11T03:00:54.402Z,60.42
2019-05-11T03:01:54.611Z,58.81
2019-05-11T03:02:54.818Z,62.04
2019-05-11T03:03:54.975Z,63.16
2019-05-11T03:04:55.145Z,62.20
2019-05-11T03:05:55.327Z,57.36
2019-05-11T03:06:55.538Z,57.85
2019-05-11T03:07:55.738Z,58.65
2019-05-11T03:08:55.926Z,57.52
2019-05-11T03:09:56.104Z,57.36
2019-05-11T03:10:56.272Z,58.01
2019-05-11T03:11:56.653Z,62.36
2019-05-11T03:12:57.659Z,73.96
2019-05-11T03:13:57.812Z,63.81
2019-05-11T03:14:56.927Z,70.58
2019-05-11T03:15:57.090Z,64.61
2019-05-11T03:16:57.267Z,73.15
2019-05-11T03:17:58.455Z,62.36
2019-05-11T03:18:57.634Z,63.16
2019-05-11T03:19:57.812Z,62.36
2019-05-11T03:20:57.985Z,72.19
2019-05-11T03:21:58.170Z,68.48
2019-05-11T03:22:58.380Z,66.87
2019-05-11T03:23:58.580Z,64.29
2019-05-11T03:24:58.772Z,70.42
2019-05-11T03:25:58.938Z,63.33
2019-05-11T03:27:00.139Z,75.09
2019-05-11T03:27:59.302Z,64.78
2019-05-11T03:28:59.504Z,60.75
2019-05-11T03:30:01.003Z,65.42
2019-05-11T03:31:00.958Z,61.07
2019-05-11T03:32:00.098Z,62.20
2019-05-11T03:33:00.238Z,65.42
2019-05-11T03:34:00.924Z,60.91
2019-05-11T03:35:00.551Z,62.84
2019-05-11T03:36:00.887Z,61.55
2019-05-11T03:37:00.851Z,62.36
2019-05-11T03:38:01.061Z,73.15
2019-05-11T03:39:01.294Z,63.00
2019-05-11T03:40:01.550Z,63.65
2019-05-11T03:41:01.658Z,73.64
2019-05-11T03:42:13.952Z,63.49
2019-05-11T03:43:04.087Z,65.26
2019-05-11T03:44:02.265Z,65.58
2019-05-11T03:45:02.502Z,66.39
2019-05-11T03:46:02.668Z,65.58
2019-05-11T03:47:02.797Z,65.10
2019-05-11T03:48:02.952Z,70.42
2019-05-11T03:49:03.128Z,65.10
2019-05-11T03:50:03.379Z,63.33
2019-05-11T03:51:03.589Z,65.10
2019-05-11T03:52:03.813Z,65.74
2019-05-11T03:53:04.012Z,73.96
2019-05-11T03:54:04.195Z,65.90
2019-05-11T03:55:04.607Z,64.61
2019-05-11T03:56:04.643Z,64.78
2019-05-11T03:57:04.703Z,65.10
2019-05-11T03:58:05.505Z,67.03
2019-05-11T03:59:05.016Z,67.51
2019-05-11T04:00:05.198Z,68.64
2019-05-11T04:01:05.384Z,70.90
2019-05-11T04:02:05.580Z,63.97
2019-05-11T04:03:05.740Z,64.61
2019-05-11T04:04:06.091Z,66.39
2019-05-11T04:05:06.600Z,67.03
2019-05-11T04:06:06.209Z,66.71
2019-05-11T04:07:06.539Z,67.03
2019-05-11T04:08:06.699Z,71.06
2019-05-11T04:09:06.746Z,64.61
2019-05-11T04:10:06.910Z,65.58
2019-05-11T04:11:07.075Z,63.00
2019-05-11T04:12:07.226Z,65.74
2019-05-11T04:13:07.451Z,67.51
2019-05-11T04:14:07.532Z,73.96
2019-05-11T04:15:07.723Z,71.38
2019-05-11T04:16:07.889Z,63.33
2019-05-11T04:17:08.058Z,60.26
2019-05-11T04:18:08.297Z,60.26
2019-05-11T04:19:08.523Z,62.20
2019-05-11T04:20:08.711Z,70.42
2019-05-11T04:21:08.873Z,60.10
2019-05-11T04:22:09.053Z,61.39
2019-05-11T04:23:09.217Z,61.07
2019-05-11T04:24:09.446Z,63.49
2019-05-11T04:25:09.562Z,65.90
2019-05-11T04:26:10.809Z,65.58
2019-05-11T04:27:10.060Z,68.32
2019-05-11T04:28:10.178Z,66.71
2019-05-11T04:29:10.300Z,60.59
2019-05-11T04:30:11.441Z,59.46
2019-05-11T04:31:10.682Z,56.88
2019-05-11T04:32:10.834Z,68.16
2019-05-11T04:33:10.976Z,71.38
2019-05-11T04:34:11.142Z,54.14
2019-05-11T04:35:11.260Z,60.59
2019-05-11T04:36:11.383Z,57.52
2019-05-11T04:37:11.644Z,61.07
2019-05-11T04:38:11.754Z,70.42
2019-05-11T04:39:11.903Z,60.59
2019-05-11T04:40:12.011Z,67.51
2019-05-11T04:41:12.155Z,69.13
2019-05-11T04:42:12.268Z,52.85
2019-05-11T04:43:12.429Z,57.36
2019-05-11T04:44:12.551Z,57.85
2019-05-11T04:45:12.708Z,58.65
2019-05-11T04:46:12.862Z,51.40
2019-05-11T04:47:13.001Z,50.92
2019-05-11T04:48:14.195Z,73.80
2019-05-11T04:49:13.307Z,50.43
2019-05-11T04:50:13.483Z,53.98
2019-05-11T04:51:14.610Z,50.27
2019-05-11T04:52:13.867Z,55.11
2019-05-11T04:53:14.047Z,58.97
2019-05-11T04:54:14.224Z,58.65
2019-05-11T04:55:14.447Z,56.24
2019-05-11T04:56:14.616Z,52.69
2019-05-11T04:57:14.792Z,74.28
2019-05-11T04:58:14.977Z,76.05
2019-05-11T04:59:15.159Z,66.06
2019-05-11T05:00:15.374Z,60.26
2019-05-11T05:01:15.539Z,64.13
2019-05-11T05:02:15.711Z,69.93
2019-05-11T05:03:15.873Z,60.42
2019-05-11T05:04:16.025Z,68.64
2019-05-11T05:05:16.195Z,70.74
2019-05-11T05:06:24.515Z,72.83
2019-05-11T05:07:18.575Z,72.35
2019-05-11T05:08:21.059Z,70.25
2019-05-11T05:09:18.067Z,57.85
2019-05-11T05:10:21.968Z,70.74
2019-05-11T05:11:19.350Z,59.30
2019-05-11T05:12:17.574Z,68.00
2019-05-11T05:13:17.754Z,69.61
2019-05-11T05:14:17.919Z,69.29
2019-05-11T05:15:18.098Z,69.77
2019-05-11T05:16:18.252Z,72.35
2019-05-11T05:17:18.416Z,69.29
2019-05-11T05:18:18.579Z,69.13
2019-05-11T05:19:18.763Z,68.96
2019-05-11T05:20:18.954Z,68.32
2019-05-11T05:21:19.167Z,69.13
2019-05-11T05:22:19.413Z,67.35
2019-05-11T05:23:19.569Z,69.13
2019-05-11T05:24:19.788Z,68.48
2019-05-11T05:25:19.927Z,73.64
2019-05-11T05:26:20.086Z,73.64
2019-05-11T05:27:20.245Z,59.30
2019-05-11T05:28:20.431Z,72.83
2019-05-11T05:29:20.580Z,60.59
2019-05-11T05:30:20.739Z,66.39
2019-05-11T05:31:20.899Z,60.10
2019-05-11T05:32:21.051Z,59.94
2019-05-11T05:33:21.275Z,74.60
2019-05-11T05:34:21.424Z,68.48
2019-05-11T05:35:21.600Z,60.59
2019-05-11T05:36:21.759Z,69.13
2019-05-11T05:37:21.911Z,72.19
2019-05-11T05:38:22.094Z,72.83
2019-05-11T05:39:22.295Z,65.42
2019-05-11T05:40:22.425Z,52.69
2019-05-11T05:41:22.598Z,62.68
2019-05-11T05:42:22.774Z,73.48
2019-05-11T05:43:27.305Z,56.88
2019-05-11T05:44:27.681Z,59.94
2019-05-11T05:45:23.275Z,70.09
2019-05-11T05:46:23.418Z,75.57
2019-05-11T05:47:23.552Z,74.44
2019-05-11T05:48:23.693Z,58.01
2019-05-11T05:49:23.857Z,79.76
2019-05-11T05:50:23.990Z,68.96
2019-05-11T05:51:24.138Z,71.54
2019-05-11T05:52:24.280Z,63.81
2019-05-11T05:53:24.467Z,76.54
2019-05-11T05:54:24.639Z,69.93
2019-05-11T05:55:24.801Z,69.93
2019-05-11T05:56:24.944Z,77.83
2019-05-11T05:57:25.140Z,75.73
2019-05-11T05:58:25.273Z,65.26
2019-05-11T05:59:25.454Z,77.67
2019-05-11T06:00:25.590Z,61.39
2019-05-11T06:01:25.744Z,68.96
2019-05-11T06:02:25.945Z,69.61
2019-05-11T06:03:26.111Z,61.39
2019-05-11T06:04:26.270Z,74.28
2019-05-11T06:05:26.410Z,62.52
2019-05-11T06:06:26.560Z,73.64
2019-05-11T06:07:27.711Z,68.00
2019-05-11T06:08:26.933Z,69.77
2019-05-11T06:09:26.972Z,73.96
2019-05-11T06:10:27.169Z,73.80
2019-05-11T06:11:27.327Z,72.83
2019-05-11T06:12:27.549Z,58.81
2019-05-11T06:13:43.984Z,58.65
2019-05-11T06:14:29.860Z,73.64
2019-05-11T06:15:28.130Z,70.42
2019-05-11T06:16:28.292Z,67.51
2019-05-11T06:17:28.479Z,70.09
2019-05-11T06:18:28.647Z,60.26
2019-05-11T06:19:28.828Z,70.25
2019-05-11T06:20:29.006Z,56.88
2019-05-11T06:21:29.158Z,58.65
2019-05-11T06:22:29.316Z,72.99
2019-05-11T06:23:29.506Z,72.83
2019-05-11T06:24:29.653Z,57.36
2019-05-11T06:25:29.855Z,65.90
2019-05-11T06:26:30.035Z,74.44
2019-05-11T06:27:30.206Z,63.16
2019-05-11T06:28:30.376Z,71.70
2019-05-11T06:29:30.548Z,68.80
2019-05-11T06:30:30.760Z,72.03
2019-05-11T06:31:30.923Z,74.28
2019-05-11T06:32:31.067Z,61.39
2019-05-11T06:33:31.254Z,72.19
2019-05-11T06:34:31.423Z,57.85
2019-05-11T06:35:31.618Z,74.60
2019-05-11T06:36:31.784Z,71.06
2019-05-11T06:37:31.958Z,67.84
2019-05-11T06:38:32.096Z,76.86
2019-05-11T06:39:32.251Z,73.64
2019-05-11T06:40:32.398Z,70.09
2019-05-11T06:41:32.587Z,64.29
2019-05-11T06:42:32.730Z,66.23
2019-05-11T06:43:32.954Z,67.51
2019-05-11T06:44:33.124Z,59.30
2019-05-11T06:45:33.298Z,72.03
2019-05-11T06:46:35.127Z,71.54
2019-05-11T06:47:34.583Z,62.68
2019-05-11T06:48:33.792Z,79.12
2019-05-11T06:49:33.863Z,75.89
2019-05-11T06:50:34.072Z,72.67
2019-05-11T06:51:34.256Z,72.67
2019-05-11T06:52:34.437Z,74.77
2019-05-11T06:53:34.606Z,73.15
2019-05-11T06:54:34.897Z,77.83
2019-05-11T06:55:34.941Z,74.12
2019-05-11T06:56:35.150Z,71.38
2019-05-11T06:57:35.332Z,68.80
2019-05-11T06:58:35.560Z,75.73
2019-05-11T06:59:35.759Z,76.22
2019-05-11T07:00:35.925Z,69.29
2019-05-11T07:01:36.154Z,68.32
2019-05-11T07:02:36.296Z,74.93
2019-05-11T07:03:36.473Z,71.54
2019-05-11T07:04:36.679Z,74.12
2019-05-11T07:05:36.849Z,74.93
2019-05-11T07:06:37.019Z,71.06
2019-05-11T07:07:47.274Z,75.57
2019-05-11T07:08:39.383Z,59.78
2019-05-11T07:09:37.562Z,74.44
2019-05-11T07:10:37.730Z,59.14
2019-05-11T07:11:37.908Z,67.19
2019-05-11T07:12:38.104Z,70.58
2019-05-11T07:13:38.266Z,73.96
2019-05-11T07:14:38.450Z,64.29
2019-05-11T07:15:38.621Z,54.62
2019-05-11T07:16:38.810Z,77.99
2019-05-11T07:17:38.982Z,64.45
2019-05-11T07:18:39.164Z,74.44
2019-05-11T07:19:39.363Z,66.87
2019-05-11T07:20:50.099Z,52.37
2019-05-11T07:21:41.701Z,70.74
2019-05-11T07:22:39.804Z,80.41
2019-05-11T07:23:40.990Z,55.75
2019-05-11T07:24:40.107Z,63.16
2019-05-11T07:25:40.997Z,74.77
2019-05-11T07:26:40.543Z,60.91
2019-05-11T07:27:40.719Z,71.54
2019-05-11T07:28:40.908Z,63.33
2019-05-11T07:29:41.155Z,68.00
2019-05-11T07:30:41.333Z,71.38
2019-05-11T07:31:41.530Z,72.83
2019-05-11T07:32:41.741Z,64.45
2019-05-11T07:33:41.924Z,73.64
2019-05-11T07:34:42.125Z,77.18
2019-05-11T07:35:42.336Z,72.35
2019-05-11T07:36:42.509Z,72.35
2019-05-11T07:37:42.679Z,60.59
2019-05-11T07:38:42.822Z,52.37
2019-05-11T07:39:42.997Z,66.06
2019-05-11T07:40:43.233Z,64.61
2019-05-11T07:41:43.482Z,71.06
2019-05-11T07:42:43.645Z,66.87
2019-05-11T07:43:43.820Z,69.93
2019-05-11T07:44:43.996Z,71.54
2019-05-11T07:45:44.173Z,66.55
2019-05-11T07:46:44.425Z,73.15
2019-05-11T07:47:44.572Z,71.06
2019-05-11T07:48:44.803Z,66.06
2019-05-11T07:49:45.001Z,61.39
2019-05-11T07:50:45.181Z,63.97
2019-05-11T07:51:45.364Z,55.27
2019-05-11T07:52:45.576Z,65.10
2019-05-11T07:53:45.788Z,71.22
2019-05-11T07:54:51.844Z,68.48
2019-05-11T07:55:48.543Z,65.26
2019-05-11T07:56:47.942Z,69.61
2019-05-11T07:57:48.153Z,76.38
2019-05-11T07:58:48.106Z,65.90
2019-05-11T07:59:48.628Z,70.42
2019-05-11T08:00:48.851Z,71.38
2019-05-11T08:01:48.120Z,75.41
2019-05-11T08:02:48.043Z,66.23
2019-05-11T08:03:48.542Z,69.61
2019-05-11T08:04:48.470Z,68.96
2019-05-11T08:05:47.962Z,69.93
2019-05-11T08:06:48.933Z,69.29
2019-05-11T08:07:48.382Z,57.36
2019-05-11T08:08:49.227Z,62.68
2019-05-11T08:09:48.522Z,63.65
2019-05-11T08:10:49.828Z,74.77
2019-05-11T08:11:48.720Z,80.24
2019-05-11T08:12:48.864Z,57.85
2019-05-11T08:13:48.930Z,72.67
2019-05-11T08:14:58.869Z,74.12
2019-05-11T08:15:51.298Z,63.81
2019-05-11T08:16:49.470Z,69.13
2019-05-11T08:17:49.819Z,71.54
2019-05-11T08:18:49.903Z,69.61
2019-05-11T08:19:49.926Z,63.16
2019-05-11T08:20:50.117Z,67.68
2019-05-11T08:21:50.335Z,69.13
2019-05-11T08:22:50.546Z,69.93
2019-05-11T08:23:50.749Z,67.51
2019-05-11T08:24:50.941Z,69.77
2019-05-11T08:25:54.300Z,72.51
2019-05-11T08:26:51.334Z,59.14
2019-05-11T08:27:51.533Z,72.67
2019-05-11T08:28:51.704Z,65.74
2019-05-11T08:29:51.955Z,61.39
2019-05-11T08:30:52.139Z,74.77
2019-05-11T08:31:52.335Z,66.87
2019-05-11T08:32:52.504Z,72.99
2019-05-11T08:33:52.689Z,74.77
2019-05-11T08:34:52.898Z,73.32
2019-05-11T08:35:52.976Z,75.41
2019-05-11T08:36:53.143Z,74.44
2019-05-11T08:37:53.342Z,73.96
2019-05-11T08:38:53.537Z,74.93
2019-05-11T08:39:53.732Z,71.87
2019-05-11T08:40:53.910Z,72.83
2019-05-11T08:41:54.071Z,74.44
2019-05-11T08:42:54.247Z,71.06
2019-05-11T08:43:54.436Z,73.80
2019-05-11T08:44:54.607Z,73.96
2019-05-11T08:45:54.771Z,74.12
2019-05-11T08:46:54.945Z,73.64
2019-05-11T08:47:55.145Z,82.50
2019-05-11T08:48:55.354Z,75.09
2019-05-11T08:49:55.551Z,68.64
2019-05-11T08:50:58.009Z,63.65
2019-05-11T08:51:57.821Z,60.91
2019-05-11T08:52:58.135Z,58.49
2019-05-11T08:53:58.283Z,70.58
2019-05-11T08:54:57.755Z,63.81
2019-05-11T08:55:58.784Z,63.49
2019-05-11T08:56:58.728Z,74.28
2019-05-11T08:57:58.517Z,66.06
2019-05-11T08:58:58.763Z,54.95
2019-05-11T08:59:58.299Z,70.74
2019-05-11T09:00:58.214Z,75.25
2019-05-11T09:01:58.948Z,69.77
2019-05-11T09:02:58.769Z,75.09
2019-05-11T09:03:58.487Z,65.26
2019-05-11T09:04:59.152Z,73.96
2019-05-11T09:05:58.283Z,72.99
2019-05-11T09:06:58.807Z,72.19
2019-05-11T09:07:59.673Z,75.73
2019-05-11T09:08:58.786Z,72.19
2019-05-11T09:09:59.958Z,69.93
2019-05-11T09:10:59.139Z,73.96
2019-05-11T09:11:59.483Z,69.93
2019-05-11T09:12:59.535Z,71.54
2019-05-11T09:13:59.690Z,68.16
2019-05-11T09:14:59.856Z,74.77
2019-05-11T09:16:00.089Z,69.29
2019-05-11T09:17:00.142Z,75.41
2019-05-11T09:18:00.327Z,70.42
2019-05-11T09:19:00.509Z,73.64
2019-05-11T09:20:00.686Z,73.32
2019-05-11T09:21:00.896Z,78.79
2019-05-11T09:22:03.162Z,61.71
2019-05-11T09:23:02.256Z,63.81
2019-05-11T09:24:01.354Z,72.35
2019-05-11T09:25:01.522Z,72.51
2019-05-11T09:26:01.702Z,61.39
2019-05-11T09:27:01.847Z,61.39
2019-05-11T09:28:01.980Z,68.80
2019-05-11T09:29:02.151Z,72.35
2019-05-11T09:30:02.341Z,72.51
2019-05-11T09:31:02.544Z,72.51
2019-05-11T09:32:02.732Z,77.67
2019-05-11T09:33:02.911Z,72.19
2019-05-11T09:34:03.157Z,76.22
2019-05-11T09:35:03.796Z,70.74
2019-05-11T09:36:03.533Z,71.54
2019-05-11T09:37:03.689Z,65.58
2019-05-11T09:38:04.852Z,75.25
2019-05-11T09:39:03.993Z,72.19
2019-05-11T09:40:04.539Z,72.51
2019-05-11T09:41:07.783Z,69.61
2019-05-11T09:42:04.635Z,73.32
2019-05-11T09:43:04.668Z,71.54
2019-05-11T09:44:05.832Z,73.15
2019-05-11T09:45:04.979Z,71.54
2019-05-11T09:46:05.124Z,72.35
2019-05-11T09:47:05.321Z,72.83
2019-05-11T09:48:05.490Z,66.55
2019-05-11T09:49:07.844Z,72.99
2019-05-11T09:50:08.406Z,63.33
2019-05-11T09:51:07.870Z,71.06
2019-05-11T09:52:07.851Z,63.33
2019-05-11T09:53:08.478Z,70.58
2019-05-11T09:54:07.909Z,69.45
2019-05-11T09:55:08.735Z,69.77
2019-05-11T09:56:08.204Z,70.58
2019-05-11T09:57:08.439Z,71.38
2019-05-11T09:58:08.632Z,73.32
2019-05-11T09:59:08.961Z,69.45
2019-05-11T10:00:08.806Z,72.19
2019-05-11T10:01:08.980Z,84.27
2019-05-11T10:02:08.919Z,84.59
2019-05-11T10:03:08.386Z,85.24
2019-05-11T10:04:09.259Z,85.88
2019-05-11T10:05:08.772Z,85.72
2019-05-11T10:06:08.702Z,85.88
2019-05-11T10:07:09.126Z,67.51
2019-05-11T10:08:10.803Z,72.35
2019-05-11T10:09:09.132Z,63.49
2019-05-11T10:10:09.485Z,73.64
2019-05-11T10:11:09.439Z,68.64
2019-05-11T10:12:09.649Z,76.54
2019-05-11T10:13:09.984Z,69.61
2019-05-11T10:14:10.100Z,65.10
2019-05-11T10:15:10.302Z,71.70
2019-05-11T10:16:10.764Z,70.58
2019-05-11T10:17:11.642Z,68.96
2019-05-11T10:18:10.812Z,64.29
2019-05-11T10:19:11.035Z,69.29
2019-05-11T10:20:11.240Z,70.90
2019-05-11T10:21:11.445Z,70.74
2019-05-11T10:22:11.656Z,71.87
2019-05-11T10:23:11.838Z,69.93
2019-05-11T10:24:12.070Z,70.90
2019-05-11T10:25:12.254Z,72.03
2019-05-11T10:26:12.437Z,63.00
2019-05-11T10:27:12.620Z,70.42
2019-05-11T10:28:12.799Z,68.48
2019-05-11T10:29:12.987Z,73.15
2019-05-11T10:30:13.257Z,64.94
2019-05-11T10:31:13.304Z,71.06
2019-05-11T10:32:13.453Z,68.80
2019-05-11T10:33:13.607Z,70.58
2019-05-11T10:34:13.779Z,48.02
2019-05-11T10:35:14.034Z,74.12
2019-05-11T10:36:14.049Z,72.99
2019-05-11T10:37:14.177Z,71.54
2019-05-11T10:38:14.332Z,75.41
2019-05-11T10:39:14.509Z,74.28
2019-05-11T10:40:15.784Z,69.77
2019-05-11T10:41:14.927Z,68.00
2019-05-11T10:42:15.104Z,72.19
2019-05-11T10:43:15.326Z,66.06
2019-05-11T10:44:15.409Z,73.32
2019-05-11T10:45:17.837Z,70.09
2019-05-11T10:46:20.199Z,62.68
2019-05-11T10:47:18.557Z,74.28
2019-05-11T10:48:17.703Z,71.70
2019-05-11T10:49:18.481Z,70.42
2019-05-11T10:50:18.746Z,66.87
2019-05-11T10:51:18.320Z,73.15
2019-05-11T10:52:18.125Z,72.19
2019-05-11T10:53:18.618Z,66.71
2019-05-11T10:54:18.835Z,74.77
2019-05-11T10:55:19.342Z,81.37
2019-05-11T10:56:18.504Z,72.35
2019-05-11T10:57:18.991Z,72.35
2019-05-11T10:58:18.882Z,70.25
2019-05-11T10:59:18.757Z,72.51
2019-05-11T11:00:19.252Z,72.35
2019-05-11T11:01:18.435Z,72.67
2019-05-11T11:02:18.659Z,66.39
2019-05-11T11:03:18.832Z,78.47
2019-05-11T11:04:19.017Z,71.87
2019-05-11T11:05:19.177Z,67.03
2019-05-11T11:06:19.382Z,73.80
2019-05-11T11:07:19.610Z,76.54
2019-05-11T11:08:19.817Z,65.58
2019-05-11T11:09:20.019Z,67.68
2019-05-11T11:10:20.345Z,72.51
2019-05-11T11:11:20.437Z,69.29
2019-05-11T11:12:20.730Z,71.06
2019-05-11T11:13:22.009Z,72.83
2019-05-11T11:14:20.966Z,75.41
2019-05-11T11:15:21.157Z,72.19
2019-05-11T11:16:35.537Z,71.70
2019-05-11T11:17:23.512Z,66.23
2019-05-11T11:18:21.786Z,75.57
2019-05-11T11:19:21.839Z,57.85
2019-05-11T11:20:22.047Z,64.78
2019-05-11T11:21:23.091Z,78.63
2019-05-11T11:23:24.567Z,79.44
2019-05-11T11:24:22.725Z,72.35
2019-05-11T11:25:22.930Z,71.54
2019-05-11T11:26:23.134Z,74.44
2019-05-11T11:27:23.373Z,68.00
2019-05-11T11:28:23.567Z,73.48
2019-05-11T11:29:23.762Z,76.54
2019-05-11T11:30:24.002Z,79.12
2019-05-11T11:31:24.214Z,57.20
2019-05-11T11:32:24.410Z,71.70
2019-05-11T11:33:24.708Z,71.06
2019-05-11T11:34:24.737Z,67.68
2019-05-11T11:35:24.928Z,71.38
2019-05-11T11:36:25.136Z,73.48
2019-05-11T11:37:25.366Z,76.86
2019-05-11T11:38:25.597Z,71.06
2019-05-11T11:39:28.034Z,74.60
2019-05-11T11:40:28.115Z,68.00
2019-05-11T11:41:26.064Z,71.22
2019-05-11T11:42:28.260Z,75.73
2019-05-11T11:43:28.670Z,70.74
2019-05-11T11:44:28.545Z,75.25
2019-05-11T11:45:28.833Z,70.25
2019-05-11T11:46:27.784Z,74.93
2019-05-11T11:47:28.197Z,74.77
2019-05-11T11:48:28.331Z,57.20
2019-05-11T11:49:28.208Z,71.54
2019-05-11T11:50:28.573Z,73.32
2019-05-11T11:51:28.626Z,68.16
2019-05-11T11:52:29.084Z,64.45
2019-05-11T11:53:29.204Z,69.13
2019-05-11T11:54:28.900Z,75.57
2019-05-11T11:55:29.595Z,69.13
2019-05-11T11:56:28.844Z,77.67
2019-05-11T11:57:28.982Z,78.15
2019-05-11T11:58:29.162Z,69.61
2019-05-11T11:59:29.383Z,77.67
2019-05-11T12:00:29.545Z,71.38
2019-05-11T12:01:29.696Z,69.93
2019-05-11T12:02:29.832Z,57.20
2019-05-11T12:03:30.092Z,72.35
2019-05-11T12:04:30.113Z,74.44
2019-05-11T12:05:30.265Z,70.25
2019-05-11T12:06:30.482Z,65.90
2019-05-11T12:07:30.619Z,76.86
2019-05-11T12:08:30.788Z,68.64
2019-05-11T12:09:30.926Z,68.48
2019-05-11T12:10:31.189Z,66.87
2019-05-11T12:11:31.355Z,69.61
2019-05-11T12:12:31.415Z,60.91
2019-05-11T12:13:31.623Z,72.35
2019-05-11T12:14:31.764Z,71.38
2019-05-11T12:15:31.947Z,70.09
2019-05-11T12:16:32.123Z,68.80
2019-05-11T12:17:32.444Z,70.58
2019-05-11T12:18:32.494Z,73.32
2019-05-11T12:19:32.641Z,75.89
2019-05-11T12:20:32.830Z,69.77
2019-05-11T12:21:32.998Z,74.44
2019-05-11T12:22:33.154Z,70.58
2019-05-11T12:23:33.324Z,71.54
2019-05-11T12:24:33.505Z,72.83
2019-05-11T12:25:33.722Z,73.15
2019-05-11T12:26:33.863Z,52.69
2019-05-11T12:27:34.083Z,65.10
2019-05-11T12:28:34.230Z,68.80
2019-05-11T12:29:34.486Z,68.16
2019-05-11T12:30:34.626Z,68.96
2019-05-11T12:31:34.748Z,68.00
2019-05-11T12:32:34.899Z,56.24
2019-05-11T12:33:35.040Z,77.83
2019-05-11T12:34:37.420Z,71.54
2019-05-11T12:35:37.634Z,69.13
2019-05-11T12:36:35.568Z,70.25
2019-05-11T12:37:37.737Z,71.22
2019-05-11T12:38:38.059Z,64.13
2019-05-11T12:39:38.512Z,71.06
2019-05-11T12:40:38.690Z,73.15
2019-05-11T12:41:38.547Z,77.18
2019-05-11T12:42:37.954Z,79.92
2019-05-11T12:43:38.249Z,76.22
2019-05-11T12:44:38.684Z,73.48
2019-05-11T12:45:38.435Z,69.61
2019-05-11T12:46:39.524Z,60.59
2019-05-11T12:47:38.525Z,62.84
2019-05-11T12:48:38.993Z,68.64
2019-05-11T12:49:39.010Z,70.09
2019-05-11T12:50:39.401Z,74.44
2019-05-11T12:51:38.633Z,70.25
2019-05-11T12:52:38.663Z,68.00
2019-05-11T12:53:38.863Z,68.96
2019-05-11T12:54:39.172Z,61.39
2019-05-11T12:55:39.232Z,64.13